Nearby METAR Reports

 

KPMP - Pompano Beach, Florida, USA
Distance from station: NNW 3mi, 5km
Updated: 11/14/2018 8:53pm
Few Clouds
Few Clouds
 Wind from SE
Wind: SE 13 mph , 20 km/h
Temperature: 81°F , 27°C
Heat Index: 87°F , 31°C
Dew Point: 75°F , 24°C
Humidity: 84%
Barometer: 30.01 inHg , 1016.3 hPa
Clouds: Few Clouds
Visibility: 10 miles , 16 km
Cloud details: Few Clouds 1700 ft
Few Clouds 2700 ft
2018/11/15 01:53 KPMP 150153Z 13011KT 10SM FEW017 FEW027 27/24 A3001 RMK AO2 SLP162 T02720239
KFXE - Ft Lauderd/Exec, Florida, USA
Distance from station: W 6mi, 9km
Updated: 11/14/2018 9:00pm
Partly cloudy
Partly cloudy
 Wind from SE
Wind: SE 9 mph , 15 km/h
Temperature: 81°F , 27°C
Heat Index: 88°F , 31°C
Dew Point: 77°F , 25°C
Humidity: 89%
Barometer: 30.01 inHg , 1016.3 hPa
Clouds: Partly cloudy
Visibility: 10 miles , 16 km
Cloud details: Partly cloudy 1800 ft
Partly cloudy 2500 ft
Partly cloudy 3300 ft
2018/11/15 02:00 KFXE 150200Z 13008KT 10SM SCT018 SCT025 SCT033 27/25 A3001 RMK AO2 T02670250
 
KFLL - Ft Lauderd/Holly, Florida, USA
Distance from station: SSW 11mi, 17km
Updated: 11/14/2018 8:53pm
Partly cloudy
Partly cloudy
 Wind from SE
Wind: SE 13 mph , 20 km/h
Temperature: 81°F , 27°C
Heat Index: 88°F , 31°C
Dew Point: 77°F , 25°C
Humidity: 89%
Barometer: 30.00 inHg , 1015.9 hPa
Clouds: Partly cloudy
Visibility: 10 miles , 16 km
Cloud details: Partly cloudy 2000 ft
2018/11/15 01:53 KFLL 150153Z 13011KT 10SM SCT020 27/25 A3000 RMK AO2 SLP158 T02670250
KBCT - Boca Raton, Florida, USA
Distance from station: N 12mi, 19km
Updated: 11/14/2018 8:47pm
Partly cloudy
Partly cloudy
 Wind from SE
Wind: SE 6 mph , 9 km/h
Temperature: 81°F , 27°C
Heat Index: 87°F , 31°C
Dew Point: 75°F , 24°C
Humidity: 84%
Barometer: 30.01 inHg , 1016.3 hPa
Clouds: Partly cloudy
Visibility: 10 miles , 16 km
Cloud details: Partly cloudy 2000 ft
2018/11/15 01:47 KBCT 150147Z 14005KT 10SM SCT020 27/24 A3001
 
KHWO - Hollywood, Florida, USA
Distance from station: SSW 17mi, 27km
Updated: 11/14/2018 8:53pm
Few Clouds
Few Clouds
 Wind from ESE
Wind: ESE 6 mph , 9 km/h
Temperature: 81°F , 27°C
Heat Index: 87°F , 31°C
Dew Point: 75°F , 24°C
Humidity: 84%
Barometer: 30.02 inHg , 1016.6 hPa
Clouds: Few Clouds
Visibility: 10 miles , 16 km
Cloud details: Few Clouds 1800 ft
2018/11/15 01:53 KHWO 150153Z 12005KT 10SM FEW018 27/24 A3002 RMK AO2 SLP165 T02720239
KOPF - Miami/Opa Locka, Florida, USA
Distance from station: SSW 24mi, 38km
Updated: 11/14/2018 8:53pm
Few Clouds
Few Clouds
 Wind from ESE
Wind: ESE 6 mph , 9 km/h
Temperature: 81°F , 27°C
Heat Index: 87°F , 31°C
Dew Point: 75°F , 24°C
Humidity: 84%
Barometer: 30.01 inHg , 1016.3 hPa
Clouds: Few Clouds
Visibility: 10 miles , 16 km
Cloud details: Few Clouds 1800 ft
2018/11/15 01:53 KOPF 150153Z 12005KT 10SM FEW018 27/24 A3001 RMK AO2 SLP164 T02670244
 
KMIA - Miami, Florida, USA
Distance from station: SSW 31mi, 50km
Updated: 11/14/2018 8:53pm
Few Clouds
Few Clouds
 Wind from ESE
Wind: ESE 9 mph , 15 km/h
Temperature: 81°F , 27°C
Heat Index: 87°F , 31°C
Dew Point: 75°F , 24°C
Humidity: 84%
Barometer: 30.01 inHg , 1016.3 hPa
Clouds: Few Clouds
Visibility: 10 miles , 16 km
Cloud details: Few Clouds 2000 ft
2018/11/15 01:53 KMIA 150153Z 11008KT 10SM FEW020 27/24 A3001 RMK AO2 SLP161 T02670244
KPBI - West Palm Beach, Florida, USA
Distance from station: N 33mi, 52km
Updated: 11/14/2018 8:53pm
Partly cloudy
Partly cloudy
 Wind from SE
Wind: SE 10 mph , 17 km/h
Temperature: 81°F , 27°C
Heat Index: 87°F , 31°C
Dew Point: 75°F , 24°C
Humidity: 84%
Barometer: 30.01 inHg , 1016.3 hPa
Clouds: Partly cloudy
Visibility: 10 miles , 16 km
Cloud details: Partly cloudy 2000 ft
2018/11/15 01:53 KPBI 150153Z 14009KT 10SM SCT020 27/24 A3001 RMK AO2 SLP162 T02670239
 
KTMB - Miami/Tamiami, Florida, USA
Distance from station: SSW 44mi, 71km
Updated: 11/14/2018 8:53pm
Few Clouds
Few Clouds
 Wind from ESE
Wind: ESE 6 mph , 9 km/h
Temperature: 81°F , 27°C
Heat Index: 86°F , 30°C
Dew Point: 73°F , 23°C
Humidity: 79%
Barometer: 30.00 inHg , 1015.9 hPa
Clouds: Few Clouds
Visibility: 10 miles , 16 km
Cloud details: Few Clouds 1900 ft
2018/11/15 01:53 KTMB 150153Z 12005KT 10SM FEW019 27/23 A3000 RMK AO2 SLP159 T02670233